createdAt,value
2018-01-12T00:00:59.187Z,1.42
2018-01-12T00:03:26.938Z,1.27
2018-01-12T00:05:54.676Z,1.25
2018-01-12T00:08:22.411Z,1.29
2018-01-12T00:10:50.204Z,1.29
2018-01-12T00:13:17.910Z,1.37
2018-01-12T00:15:45.679Z,1.41
2018-01-12T00:18:13.383Z,1.35
2018-01-12T00:20:41.081Z,1.38
2018-01-12T00:23:08.852Z,1.26
2018-01-12T00:25:36.648Z,1.27
2018-01-12T00:28:04.415Z,1.33
2018-01-12T00:30:32.215Z,1.37
2018-01-12T00:32:59.933Z,1.35
2018-01-12T00:35:27.696Z,1.26
2018-01-12T00:37:55.548Z,1.42
2018-01-12T00:40:23.307Z,1.41
2018-01-12T00:42:51.104Z,1.28
2018-01-12T00:45:18.896Z,1.27
2018-01-12T00:47:46.766Z,1.15
2018-01-12T00:50:14.633Z,1.16
2018-01-12T00:52:42.446Z,1.15
2018-01-12T00:55:10.318Z,1.12
2018-01-12T00:57:38.100Z,1.08
2018-01-12T01:00:06.788Z,1.14
2018-01-12T01:02:34.479Z,1.30
2018-01-12T01:05:02.220Z,1.10
2018-01-12T01:07:29.967Z,0.98
2018-01-12T01:09:57.715Z,1.05
2018-01-12T01:12:25.454Z,0.95
2018-01-12T01:14:53.206Z,0.98
2018-01-12T01:17:20.967Z,0.90
2018-01-12T01:19:48.744Z,0.86
2018-01-12T01:22:16.457Z,0.89
2018-01-12T01:24:44.170Z,0.84
2018-01-12T01:27:11.990Z,0.86
2018-01-12T01:29:39.808Z,0.82
2018-01-12T01:32:07.602Z,0.76
2018-01-12T01:34:35.302Z,0.77
2018-01-12T01:37:03.012Z,0.78
2018-01-12T01:39:30.757Z,0.76
2018-01-12T01:41:58.576Z,0.74
2018-01-12T01:44:26.304Z,0.76
2018-01-12T01:46:53.979Z,0.76
2018-01-12T01:49:21.676Z,0.77
2018-01-12T01:51:49.475Z,0.82
2018-01-12T01:54:17.186Z,0.85
2018-01-12T01:56:44.960Z,0.91
2018-01-12T01:59:12.660Z,0.92
2018-01-12T02:01:40.377Z,0.93
2018-01-12T02:04:08.121Z,0.92
2018-01-12T02:06:35.842Z,0.87
2018-01-12T02:09:03.630Z,0.99
2018-01-12T02:11:31.383Z,1.06
2018-01-12T02:13:59.103Z,1.14
2018-01-12T02:16:26.864Z,1.15
2018-01-12T02:18:54.654Z,1.15
2018-01-12T02:21:22.383Z,1.16
2018-01-12T02:23:50.064Z,1.20
2018-01-12T02:26:17.785Z,1.21
2018-01-12T02:28:45.501Z,1.22
2018-01-12T02:31:13.222Z,1.21
2018-01-12T02:33:40.970Z,1.18
2018-01-12T02:36:08.808Z,1.18
2018-01-12T02:38:36.513Z,1.08
2018-01-12T02:41:04.464Z,0.97
2018-01-12T02:43:32.128Z,0.97
2018-01-12T02:45:59.856Z,1.07
2018-01-12T02:48:27.641Z,1.08
2018-01-12T02:50:55.344Z,1.10
2018-01-12T02:53:23.173Z,1.11
2018-01-12T02:55:51.562Z,1.14
2018-01-12T02:58:19.527Z,1.02
2018-01-12T03:00:47.199Z,1.04
2018-01-12T03:03:14.899Z,1.00
2018-01-12T03:05:42.742Z,1.01
2018-01-12T03:08:10.401Z,1.06
2018-01-12T03:10:38.204Z,1.08
2018-01-12T03:13:05.879Z,0.94
2018-01-12T03:15:33.649Z,0.83
2018-01-12T03:18:01.475Z,0.81
2018-01-12T03:20:29.228Z,0.79
2018-01-12T03:22:56.891Z,0.95
2018-01-12T03:25:24.571Z,1.00
2018-01-12T03:27:52.600Z,0.85
2018-01-12T03:30:20.324Z,0.86
2018-01-12T03:32:48.184Z,0.85
2018-01-12T03:35:15.894Z,0.79
2018-01-12T03:37:43.602Z,0.89
2018-01-12T03:40:11.379Z,0.83
2018-01-12T03:42:39.185Z,0.81
2018-01-12T03:45:06.936Z,0.78
2018-01-12T03:47:34.732Z,0.88
2018-01-12T03:50:02.489Z,0.97
2018-01-12T03:52:30.227Z,0.96
2018-01-12T03:54:58.032Z,0.92
2018-01-12T03:57:25.716Z,0.89
2018-01-12T03:59:53.484Z,0.79
2018-01-12T04:02:21.173Z,0.84
2018-01-12T04:04:48.852Z,0.91
2018-01-12T04:07:16.582Z,0.95
2018-01-12T04:09:44.347Z,0.85
2018-01-12T04:12:12.042Z,0.76
2018-01-12T04:14:39.776Z,0.80
2018-01-12T04:17:07.493Z,0.79
2018-01-12T04:19:35.440Z,0.72
2018-01-12T04:22:03.204Z,0.66
2018-01-12T04:24:30.902Z,0.59
2018-01-12T04:26:58.636Z,0.57
2018-01-12T04:29:26.757Z,0.56
2018-01-12T04:31:54.529Z,0.54
2018-01-12T04:34:22.270Z,0.56
2018-01-12T04:36:50.014Z,0.59
2018-01-12T04:39:17.752Z,0.47
2018-01-12T04:41:45.780Z,0.54
2018-01-12T04:44:13.558Z,0.60
2018-01-12T04:46:41.296Z,0.74
2018-01-12T04:49:08.994Z,0.56
2018-01-12T04:51:36.725Z,0.60
2018-01-12T04:54:04.476Z,0.60
2018-01-12T04:56:32.166Z,0.57
2018-01-12T04:58:59.921Z,0.37
2018-01-12T05:01:27.686Z,0.41
2018-01-12T05:03:55.605Z,0.33
2018-01-12T05:06:23.448Z,0.50
2018-01-12T05:08:51.196Z,0.31
2018-01-12T05:11:18.926Z,0.31
2018-01-12T05:13:46.682Z,0.31
2018-01-12T05:16:14.385Z,0.32
2018-01-12T05:18:42.137Z,0.29
2018-01-12T05:21:09.939Z,0.32
2018-01-12T05:23:37.958Z,0.24
2018-01-12T05:26:05.693Z,0.40
2018-01-12T05:28:33.432Z,0.30
2018-01-12T05:31:01.761Z,0.19
2018-01-12T05:33:29.525Z,0.14
2018-01-12T05:35:57.426Z,0.15
2018-01-12T05:38:25.187Z,0.11
2018-01-12T05:40:52.917Z,0.24
2018-01-12T05:43:20.681Z,0.33
2018-01-12T05:45:48.426Z,0.41
2018-01-12T05:48:16.254Z,0.41
2018-01-12T05:50:43.953Z,0.45
2018-01-12T05:53:11.674Z,0.51
2018-01-12T05:55:39.365Z,0.56
2018-01-12T05:58:07.093Z,0.55
2018-01-12T06:00:34.838Z,0.55
2018-01-12T06:03:14.200Z,0.46
2018-01-12T06:05:53.772Z,0.48
2018-01-12T06:08:21.509Z,0.48
2018-01-12T06:10:49.194Z,0.38
2018-01-12T06:13:16.917Z,0.39
2018-01-12T06:15:44.606Z,0.46
2018-01-12T06:18:12.656Z,0.51
2018-01-12T06:20:40.357Z,0.54
2018-01-12T06:23:08.106Z,0.57
2018-01-12T06:25:35.883Z,0.56
2018-01-12T06:28:03.597Z,0.55
2018-01-12T06:30:31.285Z,0.64
2018-01-12T06:32:59.020Z,0.63
2018-01-12T06:35:26.689Z,0.50
2018-01-12T06:37:54.472Z,0.42
2018-01-12T06:40:22.180Z,0.35
2018-01-12T06:42:49.858Z,0.42
2018-01-12T06:45:17.616Z,0.36
2018-01-12T06:47:45.303Z,0.32
2018-01-12T06:50:13.070Z,0.37
2018-01-12T06:52:40.772Z,0.46
2018-01-12T06:55:08.438Z,0.45
2018-01-12T06:57:36.182Z,0.43
2018-01-12T07:00:04.031Z,0.41
2018-01-12T07:02:31.790Z,0.45
2018-01-12T07:04:59.472Z,0.48
2018-01-12T07:07:27.233Z,0.50
2018-01-12T07:09:54.963Z,0.49
2018-01-12T07:12:22.699Z,0.55
2018-01-12T07:14:50.493Z,0.58
2018-01-12T07:17:18.240Z,0.62
2018-01-12T07:19:46.004Z,0.67
2018-01-12T07:22:25.444Z,0.64
2018-01-12T07:24:53.286Z,0.68
2018-01-12T07:27:21.157Z,0.71
2018-01-12T07:29:48.885Z,0.74
2018-01-12T07:32:16.735Z,0.76
2018-01-12T07:34:44.469Z,0.71
2018-01-12T07:37:12.288Z,0.79
2018-01-12T07:39:40.065Z,0.77
2018-01-12T07:42:07.846Z,0.79
2018-01-12T07:44:35.655Z,0.81
2018-01-12T07:47:03.416Z,0.81
2018-01-12T07:49:31.208Z,0.88
2018-01-12T07:51:59.023Z,0.71
2018-01-12T07:54:26.824Z,0.67
2018-01-12T07:56:54.608Z,0.74
2018-01-12T07:59:22.381Z,0.84
2018-01-12T08:01:55.712Z,0.89
2018-01-12T08:04:23.569Z,0.91
2018-01-12T08:06:51.335Z,0.88
2018-01-12T08:09:19.090Z,0.99
2018-01-12T08:11:46.801Z,1.05
2018-01-12T08:14:14.553Z,0.96
2018-01-12T08:16:42.488Z,0.97
2018-01-12T08:19:10.307Z,0.98
2018-01-12T08:21:38.057Z,0.84
2018-01-12T08:24:05.842Z,1.03
2018-01-12T08:26:33.626Z,0.91
2018-01-12T08:29:01.454Z,0.81
2018-01-12T08:31:29.267Z,0.91
2018-01-12T08:33:57.015Z,0.89
2018-01-12T08:36:24.893Z,0.81
2018-01-12T08:38:52.752Z,1.04
2018-01-12T08:41:20.499Z,0.87
2018-01-12T08:43:48.370Z,0.84
2018-01-12T08:46:16.080Z,0.91
2018-01-12T08:48:43.822Z,1.08
2018-01-12T08:51:11.659Z,1.11
2018-01-12T08:53:39.371Z,1.02
2018-01-12T08:56:07.736Z,0.99
2018-01-12T08:58:35.469Z,0.98
2018-01-12T09:01:03.176Z,1.12
2018-01-12T09:03:30.917Z,1.29
2018-01-12T09:05:58.600Z,1.17
2018-01-12T09:08:26.307Z,0.92
2018-01-12T09:10:54.063Z,0.98
2018-01-12T09:13:33.530Z,0.91
2018-01-12T09:16:10.438Z,0.97
2018-01-12T09:18:50.777Z,1.02
2018-01-12T09:21:25.720Z,0.85
2018-01-12T09:23:56.409Z,0.78
2018-01-12T09:26:24.155Z,0.78
2018-01-12T09:28:51.899Z,0.77
2018-01-12T09:31:19.769Z,0.80
2018-01-12T09:33:48.410Z,0.87
2018-01-12T09:36:16.138Z,0.92
2018-01-12T09:38:53.586Z,0.96
2018-01-12T09:41:21.349Z,1.14
2018-01-12T09:43:49.107Z,1.13
2018-01-12T09:46:16.876Z,1.15
2018-01-12T09:48:51.591Z,0.97
2018-01-12T09:51:19.397Z,0.94
2018-01-12T09:53:47.238Z,1.03
2018-01-12T09:56:15.035Z,0.96
2018-01-12T09:58:45.753Z,0.95
2018-01-12T10:01:26.083Z,0.91
2018-01-12T10:03:53.836Z,0.94
2018-01-12T10:06:21.531Z,0.85
2018-01-12T10:08:49.335Z,0.88
2018-01-12T10:11:17.077Z,1.02
2018-01-12T10:13:44.797Z,1.02
2018-01-12T10:16:12.674Z,0.91
2018-01-12T10:18:42.374Z,1.03
2018-01-12T10:21:21.774Z,1.06
2018-01-12T10:23:49.505Z,1.26
2018-01-12T10:26:17.191Z,1.23
2018-01-12T10:28:56.709Z,1.22
2018-01-12T10:31:33.189Z,1.13
2018-01-12T10:34:07.692Z,1.28
2018-01-12T10:36:40.128Z,1.25
2018-01-12T10:39:19.570Z,1.22
2018-01-12T10:41:59.046Z,1.27
2018-01-12T10:44:26.841Z,1.15
2018-01-12T10:47:06.366Z,1.18
2018-01-12T10:49:34.177Z,1.35
2018-01-12T10:52:07.730Z,1.54
2018-01-12T10:54:35.472Z,1.47
2018-01-12T10:57:03.174Z,1.33
2018-01-12T10:59:30.915Z,1.50
2018-01-12T11:01:58.590Z,1.46
2018-01-12T11:04:26.352Z,1.47
2018-01-12T11:06:54.038Z,1.56
2018-01-12T11:09:21.818Z,1.47
2018-01-12T11:11:49.573Z,1.67
2018-01-12T11:14:17.301Z,1.56
2018-01-12T11:16:45.012Z,1.36
2018-01-12T11:19:12.760Z,1.53
2018-01-12T11:21:40.551Z,1.51
2018-01-12T11:24:08.334Z,1.32
2018-01-12T11:26:36.018Z,1.35
2018-01-12T11:29:03.768Z,1.37
2018-01-12T11:31:31.598Z,1.36
2018-01-12T11:33:59.308Z,1.46
2018-01-12T11:36:27.136Z,1.52
2018-01-12T11:38:54.908Z,1.67
2018-01-12T11:41:22.595Z,1.73
2018-01-12T11:43:50.356Z,1.51
2018-01-12T11:46:18.082Z,1.64
2018-01-12T11:48:45.762Z,1.79
2018-01-12T11:51:13.558Z,2.01
2018-01-12T11:53:41.281Z,2.08
2018-01-12T11:56:08.979Z,2.15
2018-01-12T11:58:36.837Z,2.09
2018-01-12T12:01:04.642Z,2.12
2018-01-12T12:03:32.456Z,2.15
2018-01-12T12:06:00.226Z,2.07
2018-01-12T12:08:28.118Z,1.91
2018-01-12T12:10:55.932Z,1.64
2018-01-12T12:13:23.654Z,1.84
2018-01-12T12:15:51.486Z,1.69
2018-01-12T12:18:19.174Z,1.84
2018-01-12T12:20:46.964Z,1.79
2018-01-12T12:23:14.784Z,1.84
2018-01-12T12:25:43.211Z,1.76
2018-01-12T12:28:10.949Z,1.91
2018-01-12T12:30:38.684Z,2.01
2018-01-12T12:33:07.363Z,2.18
2018-01-12T12:35:35.051Z,2.39
2018-01-12T12:38:02.848Z,2.12
2018-01-12T12:40:31.220Z,1.97
2018-01-12T12:42:59.012Z,2.03
2018-01-12T12:45:26.911Z,2.14
2018-01-12T12:47:54.686Z,2.27
2018-01-12T12:50:22.555Z,2.24
2018-01-12T12:52:50.296Z,2.18
2018-01-12T12:55:18.067Z,2.23
2018-01-12T12:57:45.856Z,2.19
2018-01-12T13:00:13.628Z,2.43
2018-01-12T13:02:41.392Z,2.33
2018-01-12T13:05:09.190Z,2.17
2018-01-12T13:07:37.062Z,2.17
2018-01-12T13:10:04.972Z,2.12
2018-01-12T13:12:32.753Z,2.21
2018-01-12T13:15:00.683Z,2.15
2018-01-12T13:17:28.397Z,2.17
2018-01-12T13:19:56.187Z,2.23
2018-01-12T13:22:24.821Z,2.22
2018-01-12T13:24:52.563Z,2.32
2018-01-12T13:27:20.285Z,2.26
2018-01-12T13:29:48.021Z,2.26
2018-01-12T13:32:15.730Z,2.21
2018-01-12T13:34:43.556Z,2.29
2018-01-12T13:37:11.391Z,2.38
2018-01-12T13:39:39.088Z,2.42
2018-01-12T13:42:06.942Z,2.57
2018-01-12T13:44:34.712Z,2.55
2018-01-12T13:47:02.507Z,2.57
2018-01-12T13:49:30.195Z,2.63
2018-01-12T13:51:57.977Z,2.68
2018-01-12T13:54:25.668Z,2.73
2018-01-12T13:56:53.360Z,2.59
2018-01-12T13:59:21.305Z,2.68
2018-01-12T14:01:49.089Z,2.79
2018-01-12T14:04:16.875Z,2.76
2018-01-12T14:06:44.610Z,2.78
2018-01-12T14:09:12.413Z,2.77
2018-01-12T14:11:40.184Z,2.78
2018-01-12T14:14:08.034Z,2.77
2018-01-12T14:16:35.784Z,2.67
2018-01-12T14:19:03.568Z,2.42
2018-01-12T14:21:31.332Z,2.54
2018-01-12T14:23:59.066Z,2.49
2018-01-12T14:26:27.117Z,2.30
2018-01-12T14:28:55.294Z,2.33
2018-01-12T14:31:23.038Z,2.54
2018-01-12T14:33:50.784Z,2.53
2018-01-12T14:36:18.660Z,2.60
2018-01-12T14:38:46.428Z,2.69
2018-01-12T14:41:14.186Z,2.67
2018-01-12T14:43:42.041Z,2.65
2018-01-12T14:46:09.812Z,2.68
2018-01-12T14:48:37.666Z,2.65
2018-01-12T14:51:05.531Z,2.64
2018-01-12T14:53:33.304Z,2.58
2018-01-12T14:56:01.262Z,2.56
2018-01-12T14:58:29.064Z,2.57
2018-01-12T15:00:56.784Z,2.46
2018-01-12T15:03:24.585Z,2.48
2018-01-12T15:05:53.182Z,2.39
2018-01-12T15:08:20.897Z,2.35
2018-01-12T15:10:48.660Z,2.39
2018-01-12T15:13:16.472Z,2.44
2018-01-12T15:15:44.199Z,2.38
2018-01-12T15:18:11.923Z,2.38
2018-01-12T15:20:40.153Z,2.27
2018-01-12T15:23:08.608Z,2.10
2018-01-12T15:25:36.467Z,2.22
2018-01-12T15:28:04.402Z,2.32
2018-01-12T15:30:32.162Z,2.33
2018-01-12T15:33:00.102Z,2.36
2018-01-12T15:35:27.998Z,2.26
2018-01-12T15:37:55.778Z,2.26
2018-01-12T15:40:24.265Z,2.28
2018-01-12T15:42:52.146Z,2.24
2018-01-12T15:45:19.917Z,2.17
2018-01-12T15:47:47.676Z,2.15
2018-01-12T15:50:15.541Z,2.15
2018-01-12T15:52:43.282Z,2.10
2018-01-12T15:55:11.047Z,2.08
2018-01-12T15:57:38.764Z,2.12
2018-01-12T16:00:06.615Z,2.12
2018-01-12T16:02:34.379Z,2.09
2018-01-12T16:05:02.137Z,2.00
2018-01-12T16:07:29.940Z,2.00
2018-01-12T16:09:57.833Z,2.07
2018-01-12T16:12:25.740Z,2.04
2018-01-12T16:14:54.411Z,2.03
2018-01-12T16:17:22.212Z,2.07
2018-01-12T16:19:49.959Z,2.02
2018-01-12T16:22:17.707Z,1.80
2018-01-12T16:24:45.622Z,1.74
2018-01-12T16:27:13.737Z,1.80
2018-01-12T16:29:41.630Z,1.94
2018-01-12T16:32:09.590Z,1.95
2018-01-12T16:34:37.325Z,1.86
2018-01-12T16:37:05.145Z,1.85
2018-01-12T16:39:32.939Z,1.94
2018-01-12T16:42:00.684Z,2.00
2018-01-12T16:44:28.472Z,2.04
2018-01-12T16:46:56.273Z,2.00
2018-01-12T16:49:24.004Z,1.99
2018-01-12T16:51:52.152Z,1.96
2018-01-12T16:54:19.924Z,1.98
2018-01-12T16:56:47.634Z,2.00
2018-01-12T16:59:15.449Z,1.97
2018-01-12T17:01:43.210Z,1.94
2018-01-12T17:04:10.929Z,1.93
2018-01-12T17:06:38.866Z,1.90
2018-01-12T17:09:06.628Z,1.86
2018-01-12T17:11:35.618Z,1.77
2018-01-12T17:14:03.587Z,1.65
2018-01-12T17:16:32.378Z,1.61
2018-01-12T17:19:00.169Z,1.54
2018-01-12T17:21:27.930Z,1.69
2018-01-12T17:23:55.708Z,1.71
2018-01-12T17:26:23.536Z,1.71
2018-01-12T17:28:51.243Z,1.71
2018-01-12T17:31:18.973Z,1.74
2018-01-12T17:33:46.784Z,1.79
2018-01-12T17:36:14.542Z,1.84
2018-01-12T17:38:42.258Z,1.84
2018-01-12T17:41:10.779Z,1.82
2018-01-12T17:43:38.674Z,1.79
2018-01-12T17:46:06.471Z,1.76
2018-01-12T17:48:34.265Z,1.74
2018-01-12T17:51:02.118Z,1.79
2018-01-12T17:53:31.300Z,1.76
2018-01-12T17:55:59.874Z,1.80
2018-01-12T17:58:27.797Z,1.78
2018-01-12T18:00:55.566Z,1.84
2018-01-12T18:03:29.404Z,1.83
2018-01-12T18:06:04.036Z,1.78
2018-01-12T18:08:33.474Z,1.75
2018-01-12T18:11:06.303Z,1.79
2018-01-12T18:13:35.556Z,1.83
2018-01-12T18:16:09.738Z,1.80
2018-01-12T18:18:37.933Z,1.78
2018-01-12T18:21:05.674Z,1.73
2018-01-12T18:23:33.450Z,1.62
2018-01-12T18:26:01.204Z,1.64
2018-01-12T18:28:29.072Z,1.74
2018-01-12T18:30:56.919Z,1.75
2018-01-12T18:33:24.800Z,1.70
2018-01-12T18:35:52.827Z,1.66
2018-01-12T18:38:21.428Z,1.66
2018-01-12T18:40:49.656Z,1.73
2018-01-12T18:43:17.462Z,1.75
2018-01-12T18:45:45.304Z,1.75
2018-01-12T18:48:13.170Z,1.75
2018-01-12T18:50:41.783Z,1.75
2018-01-12T18:53:09.651Z,1.76
2018-01-12T18:55:37.562Z,1.69
2018-01-12T18:58:06.575Z,1.70
2018-01-12T19:00:34.624Z,1.71
2018-01-12T19:03:03.157Z,1.66
2018-01-12T19:05:30.930Z,1.66
2018-01-12T19:07:58.778Z,1.70
2018-01-12T19:10:26.790Z,1.64
2018-01-12T19:12:54.571Z,1.66
2018-01-12T19:15:22.350Z,1.65
2018-01-12T19:17:51.357Z,1.67
2018-01-12T19:20:19.277Z,1.60
2018-01-12T19:22:48.105Z,1.59
2018-01-12T19:25:16.821Z,1.57
2018-01-12T19:27:44.786Z,1.57
2018-01-12T19:30:12.689Z,1.53
2018-01-12T19:32:40.745Z,1.55
2018-01-12T19:35:09.685Z,1.58
2018-01-12T19:37:37.645Z,1.62
2018-01-12T19:40:06.669Z,1.61
2018-01-12T19:42:34.818Z,1.63
2018-01-12T19:45:02.754Z,1.63
2018-01-12T19:47:30.702Z,1.62
2018-01-12T19:49:58.533Z,1.58
2018-01-12T19:52:26.339Z,1.56
2018-01-12T19:54:54.291Z,1.59
2018-01-12T19:57:22.268Z,1.44
2018-01-12T19:59:50.568Z,1.43
2018-01-12T20:02:19.616Z,1.34
2018-01-12T20:04:47.409Z,1.45
2018-01-12T20:07:15.351Z,1.35
2018-01-12T20:09:43.425Z,1.47
2018-01-12T20:12:11.273Z,1.49
2018-01-12T20:14:39.118Z,1.52
2018-01-12T20:17:08.266Z,1.52
2018-01-12T20:19:35.987Z,1.58
2018-01-12T20:22:03.822Z,1.59
2018-01-12T20:24:31.862Z,1.63
2018-01-12T20:26:59.790Z,1.63
2018-01-12T20:29:27.675Z,1.54
2018-01-12T20:31:55.904Z,1.52
2018-01-12T20:34:24.084Z,1.48
2018-01-12T20:36:52.076Z,1.52
2018-01-12T20:39:21.611Z,1.53
2018-01-12T20:41:50.180Z,1.58
2018-01-12T20:44:18.155Z,1.55
2018-01-12T20:46:45.918Z,1.56
2018-01-12T20:49:14.263Z,1.60
2018-01-12T20:51:42.121Z,1.64
2018-01-12T20:54:09.882Z,1.66
2018-01-12T20:56:37.660Z,1.69
2018-01-12T20:59:06.510Z,1.66
2018-01-12T21:01:34.463Z,1.58
2018-01-12T21:04:03.252Z,1.55
2018-01-12T21:06:31.262Z,1.61
2018-01-12T21:08:59.180Z,1.64
2018-01-12T21:11:27.025Z,1.63
2018-01-12T21:13:55.657Z,1.62
2018-01-12T21:16:24.581Z,1.59
2018-01-12T21:18:52.353Z,1.57
2018-01-12T21:21:21.077Z,1.53
2018-01-12T21:23:49.281Z,1.55
2018-01-12T21:26:17.286Z,1.56
2018-01-12T21:28:45.168Z,1.62
2018-01-12T21:31:13.689Z,1.54
2018-01-12T21:33:41.482Z,1.55
2018-01-12T21:36:09.515Z,1.49
2018-01-12T21:38:37.573Z,1.46
2018-01-12T21:41:06.346Z,1.53
2018-01-12T21:43:34.331Z,1.55
2018-01-12T21:46:02.622Z,1.58
2018-01-12T21:48:30.972Z,1.55
2018-01-12T21:50:59.041Z,1.51
2018-01-12T21:53:26.890Z,1.53
2018-01-12T21:55:54.844Z,1.49
2018-01-12T21:58:22.779Z,1.53
2018-01-12T22:00:50.793Z,1.57
2018-01-12T22:03:18.629Z,1.58
2018-01-12T22:05:47.366Z,1.44
2018-01-12T22:08:15.167Z,1.46
2018-01-12T22:10:42.932Z,1.46
2018-01-12T22:13:10.687Z,1.36
2018-01-12T22:15:38.441Z,1.40
2018-01-12T22:18:06.280Z,1.46
2018-01-12T22:20:35.224Z,1.49
2018-01-12T22:23:02.968Z,1.54
2018-01-12T22:25:30.719Z,1.58
2018-01-12T22:27:58.531Z,1.43
2018-01-12T22:30:26.967Z,1.41
2018-01-12T22:32:54.730Z,1.28
2018-01-12T22:35:22.503Z,1.35
2018-01-12T22:37:50.348Z,1.41
2018-01-12T22:40:18.089Z,1.38
2018-01-12T22:42:45.875Z,1.42
2018-01-12T22:45:13.627Z,1.50
2018-01-12T22:47:42.311Z,1.55
2018-01-12T22:50:10.106Z,1.58
2018-01-12T22:52:37.896Z,1.61
2018-01-12T22:55:05.656Z,1.52
2018-01-12T22:57:33.319Z,1.49
2018-01-12T23:00:01.044Z,1.56
2018-01-12T23:02:28.894Z,1.62
2018-01-12T23:04:56.602Z,1.58
2018-01-12T23:07:24.345Z,1.59
2018-01-12T23:09:52.108Z,1.56
2018-01-12T23:12:19.861Z,1.49
2018-01-12T23:14:48.516Z,1.48
2018-01-12T23:17:16.273Z,1.44
2018-01-12T23:19:44.063Z,1.44
2018-01-12T23:22:11.831Z,1.48
2018-01-12T23:24:39.601Z,1.46
2018-01-12T23:27:07.360Z,1.47
2018-01-12T23:29:35.383Z,1.51
2018-01-12T23:32:03.166Z,1.54
2018-01-12T23:34:30.903Z,1.57
2018-01-12T23:36:58.675Z,1.62
2018-01-12T23:39:26.350Z,1.59
2018-01-12T23:41:54.132Z,1.52
2018-01-12T23:44:21.889Z,1.47
2018-01-12T23:46:49.665Z,1.49
2018-01-12T23:49:17.432Z,1.52
2018-01-12T23:51:45.158Z,1.56
2018-01-12T23:54:12.834Z,1.53
2018-01-12T23:56:40.569Z,1.59
2018-01-12T23:59:08.285Z,1.53
